Time;durP1;ratioP1;P1;durP2;ratioP2;P2;SDS_P1;SDS_P2;PMS_P1;PMS_P2;Temp;Humidity;BMP_temperature;BMP_pressure;BME280_temperature;BME280_humidity;BME280_pressure;Samples;Min_cycle;Max_cycle;Signal;HPM_P1;HPM_P2
2022/03/24 00:00:37;;;;;;;46.08;28.98;;;8.70;99.90;;;;;;5035604;28;20041;-73
2022/03/24 00:03:03;;;;;;;41.63;27.63;;;8.70;99.90;;;;;;5051876;28;20133;-73
2022/03/24 00:05:30;;;;;;;44.65;28.75;;;8.60;99.90;;;;;;5035400;28;20094;-73
2022/03/24 00:07:55;;;;;;;41.58;27.77;;;8.60;99.90;;;;;;5051642;28;20048;-73
2022/03/24 00:10:21;;;;;;;42.97;28.67;;;8.60;99.90;;;;;;5052119;28;20119;-72
2022/03/24 00:12:47;;;;;;;43.07;27.57;;;8.60;99.90;;;;;;5051732;28;20468;-73
2022/03/24 00:15:12;;;;;;;41.28;28.10;;;8.60;99.90;;;;;;5052228;28;20283;-73
2022/03/24 00:17:38;;;;;;;40.20;26.70;;;8.60;99.90;;;;;;5052008;28;20056;-73
2022/03/24 00:20:05;;;;;;;44.83;28.77;;;8.60;99.90;;;;;;5052078;28;20049;-73
2022/03/24 00:22:31;;;;;;;46.35;29.02;;;8.60;99.90;;;;;;5052182;28;20413;-73
2022/03/24 00:24:56;;;;;;;46.72;28.92;;;8.50;99.90;;;;;;5051919;28;20054;-72
2022/03/24 00:27:22;;;;;;;41.60;27.70;;;8.60;99.90;;;;;;5052359;28;20044;-72
2022/03/24 00:29:48;;;;;;;41.05;27.58;;;8.50;99.90;;;;;;5034976;28;20304;-72
2022/03/24 00:32:14;;;;;;;43.65;26.83;;;8.50;99.90;;;;;;5035778;28;20188;-73
2022/03/24 00:34:40;;;;;;;41.25;27.02;;;8.40;99.90;;;;;;5053251;28;20036;-72
2022/03/24 00:37:06;;;;;;;39.05;26.55;;;8.50;99.90;;;;;;5055596;28;20087;-73
2022/03/24 00:39:34;;;;;;;41.83;27.08;;;8.40;99.90;;;;;;5039431;28;20712;-73
2022/03/24 00:42:11;;;;;;;38.67;25.88;;;8.40;99.90;;;;;;5055620;28;20135;-73
2022/03/24 00:44:44;;;;;;;40.05;26.65;;;8.30;99.90;;;;;;5055723;28;20078;-73
2022/03/24 00:47:13;;;;;;;41.47;26.05;;;8.30;99.90;;;;;;5055393;28;20090;-72
2022/03/24 00:49:40;;;;;;;40.83;27.23;;;8.30;99.90;;;;;;5055503;28;20626;-73
2022/03/24 00:52:06;;;;;;;40.30;26.55;;;8.30;99.90;;;;;;5054888;28;20071;-72
2022/03/24 00:54:32;;;;;;;43.70;28.10;;;8.20;99.90;;;;;;5055463;28;20506;-73
2022/03/24 00:56:58;;;;;;;41.60;27.20;;;8.10;99.90;;;;;;5054750;28;20133;-73
2022/03/24 00:59:24;;;;;;;40.00;27.08;;;8.00;99.90;;;;;;5022070;28;20044;-73
2022/03/24 01:01:50;;;;;;;42.45;26.98;;;8.00;99.90;;;;;;5054743;28;20428;-73
2022/03/24 01:04:16;;;;;;;42.50;28.02;;;8.10;99.90;;;;;;5038563;28;20177;-73
2022/03/24 01:06:43;;;;;;;45.25;29.13;;;8.00;99.90;;;;;;5055058;28;20127;-74
2022/03/24 01:09:08;;;;;;;45.33;30.08;;;7.90;99.90;;;;;;5054609;28;20040;-73
2022/03/24 01:11:34;;;;;;;48.50;31.67;;;7.90;99.90;;;;;;5055059;28;20044;-73
2022/03/24 01:14:01;;;;;;;53.42;31.45;;;7.90;99.90;;;;;;5054949;28;20193;-72
2022/03/24 01:16:29;;;;;;;49.40;31.45;;;7.90;99.90;;;;;;5054818;28;20063;-72
2022/03/24 01:18:55;;;;;;;57.63;32.72;;;7.90;99.90;;;;;;5054789;28;20076;-72
2022/03/24 01:21:20;;;;;;;49.00;32.07;;;7.90;99.90;;;;;;5054852;28;20083;-73
2022/03/24 01:23:47;;;;;;;51.33;31.70;;;7.80;99.90;;;;;;5038001;28;20648;-73
2022/03/24 01:26:13;;;;;;;53.13;32.15;;;7.80;99.90;;;;;;5055022;28;20334;-72
2022/03/24 01:28:40;;;;;;;53.03;33.45;;;7.80;99.90;;;;;;5054646;28;20139;-72
2022/03/24 01:31:08;;;;;;;48.40;30.60;;;7.80;99.90;;;;;;5054265;28;20056;-72
2022/03/24 01:33:38;;;;;;;53.67;32.53;;;7.80;99.90;;;;;;5054795;28;20492;-72
2022/03/24 01:36:10;;;;;;;48.95;30.83;;;7.80;99.90;;;;;;5054417;28;20040;-72
2022/03/24 01:38:37;;;;;;;51.42;31.55;;;7.90;99.90;;;;;;5054802;28;20488;-73
2022/03/24 01:41:03;;;;;;;53.55;31.83;;;7.80;99.90;;;;;;5054661;28;20040;-73
2022/03/24 01:43:30;;;;;;;40.15;25.83;;;7.80;99.90;;;;;;5038108;28;20063;-73
2022/03/24 01:45:56;;;;;;;32.22;21.95;;;7.80;99.90;;;;;;5053975;28;20048;-72
2022/03/24 01:48:22;;;;;;;26.80;19.10;;;7.70;99.90;;;;;;5054383;28;20041;-71
2022/03/24 01:50:47;;;;;;;28.98;20.02;;;7.70;99.90;;;;;;5053654;28;20067;-72
2022/03/24 01:53:14;;;;;;;26.33;19.07;;;7.60;99.90;;;;;;5038337;28;20041;-73
2022/03/24 01:55:41;;;;;;;;;;;7.50;99.90;;;;;;5054515;28;20047;-73
2022/03/24 01:58:07;;;;;;;28.60;19.48;;;7.40;99.90;;;;;;5054004;28;20425;-73
2022/03/24 02:00:34;;;;;;;32.20;20.27;;;7.40;99.90;;;;;;5054129;28;20040;-73
2022/03/24 02:03:03;;;;;;;;;;;7.30;99.90;;;;;;5054310;28;20037;-73
2022/03/24 02:05:34;;;;;;;25.35;18.00;;;7.30;99.90;;;;;;5054250;28;20418;-73
2022/03/24 02:08:03;;;;;;;25.15;18.50;;;7.20;99.90;;;;;;5053817;28;20044;-73
2022/03/24 02:10:34;;;;;;;27.75;19.65;;;7.20;99.90;;;;;;5054009;28;20442;-73
2022/03/24 02:13:01;;;;;;;27.15;19.45;;;7.20;99.90;;;;;;5053886;28;20467;-71
2022/03/24 02:15:27;;;;;;;27.30;18.90;;;7.10;99.90;;;;;;5054239;28;20514;-72
2022/03/24 02:17:54;;;;;;;24.17;17.83;;;7.30;99.90;;;;;;5053359;28;20053;-72
2022/03/24 02:20:20;;;;;;;;;;;7.10;99.90;;;;;;5037695;28;20075;-73
2022/03/24 02:22:47;;;;;;;25.50;16.90;;;7.00;99.90;;;;;;5037429;28;19923;-72
2022/03/24 02:25:13;;;;;;;37.78;20.73;;;7.10;99.90;;;;;;5053451;28;20045;-72
2022/03/24 02:27:39;;;;;;;33.10;21.40;;;7.10;99.90;;;;;;5054007;28;20055;-72
2022/03/24 02:30:05;;;;;;;;;;;7.00;99.90;;;;;;5053656;28;20044;-72
2022/03/24 02:32:31;;;;;;;31.33;21.02;;;7.00;99.90;;;;;;5053992;28;19916;-72
2022/03/24 02:34:57;;;;;;;28.40;19.77;;;6.90;99.90;;;;;;5053207;28;20048;-72
2022/03/24 02:37:25;;;;;;;51.97;23.47;;;6.90;99.90;;;;;;5053758;28;20642;-73
2022/03/24 02:39:53;;;;;;;51.50;22.60;;;7.10;99.90;;;;;;5052972;28;20040;-73
2022/03/24 02:42:22;;;;;;;141.15;26.65;;;6.70;99.90;;;;;;5053717;28;20036;-73
2022/03/24 02:44:50;;;;;;;34.15;23.17;;;6.70;99.90;;;;;;5053052;28;20056;-73
2022/03/24 02:47:16;;;;;;;32.70;21.45;;;6.60;99.90;;;;;;5053633;28;20040;-73
2022/03/24 02:49:43;;;;;;;31.25;20.35;;;6.60;99.90;;;;;;5053132;28;20402;-73
2022/03/24 02:52:10;;;;;;;37.05;22.90;;;6.60;99.90;;;;;;5053001;28;20036;-73
2022/03/24 02:54:36;;;;;;;;;;;6.70;99.90;;;;;;5053455;28;20044;-73
2022/03/24 02:57:03;;;;;;;32.80;22.25;;;6.50;99.90;;;;;;5052551;28;19917;-73
2022/03/24 02:59:29;;;;;;;180.98;27.98;;;6.50;99.90;;;;;;5053160;28;20044;-73
2022/03/24 03:01:55;;;;;;;84.57;25.52;;;6.50;99.90;;;;;;5052503;28;20044;-73
2022/03/24 03:04:22;;;;;;;55.25;23.60;;;6.50;99.90;;;;;;5053324;28;20460;-71
2022/03/24 03:06:48;;;;;;;79.18;25.63;;;6.40;99.90;;;;;;5020039;28;20119;-73
2022/03/24 03:09:18;;;;;;;71.95;24.85;;;6.40;99.90;;;;;;5052708;28;20036;-72
2022/03/24 03:11:45;;;;;;;48.10;23.90;;;6.40;99.90;;;;;;5053134;28;20383;-73
2022/03/24 03:14:12;;;;;;;138.75;28.23;;;6.30;99.90;;;;;;5035629;28;20045;-72
2022/03/24 03:16:39;;;;;;;156.95;29.35;;;6.30;99.90;;;;;;5052511;28;20048;-72
2022/03/24 03:19:04;;;;;;;;;;;6.20;99.90;;;;;;5053169;28;20491;-73
2022/03/24 03:21:30;;;;;;;99.78;28.92;;;6.10;99.90;;;;;;5052764;28;19917;-73
2022/03/24 03:23:56;;;;;;;62.13;28.33;;;6.10;99.90;;;;;;5035731;28;20040;-73
2022/03/24 03:26:23;;;;;;;41.20;26.08;;;6.10;99.90;;;;;;5019907;28;20044;-73
2022/03/24 03:28:52;;;;;;;;;;;6.10;99.90;;;;;;5053365;28;20072;-72
2022/03/24 03:31:19;;;;;;;176.27;32.97;;;6.30;99.90;;;;;;5052415;28;19916;-73
2022/03/24 03:33:45;;;;;;;114.40;29.05;;;6.00;99.90;;;;;;5052443;28;20155;-72
2022/03/24 03:36:11;;;;;;;31.63;22.73;;;6.00;99.90;;;;;;5052379;28;20055;-72
2022/03/24 03:38:37;;;;;;;38.58;22.95;;;5.90;99.90;;;;;;5052528;28;20123;-72
2022/03/24 03:41:02;;;;;;;56.13;23.92;;;5.90;99.90;;;;;;5035563;28;20106;-73
2022/03/24 03:43:29;;;;;;;96.38;27.35;;;5.90;99.90;;;;;;5036076;28;20420;-73
2022/03/24 03:45:55;;;;;;;138.23;26.55;;;5.90;99.90;;;;;;5051974;28;20037;-73
2022/03/24 03:48:21;;;;;;;168.57;28.90;;;5.90;99.90;;;;;;5052748;28;20040;-72
2022/03/24 03:50:48;;;;;;;52.83;24.65;;;6.00;99.90;;;;;;5052561;28;20048;-73
2022/03/24 03:53:14;;;;;;;76.35;26.00;;;6.00;99.90;;;;;;5052265;28;20154;-73
2022/03/24 03:55:41;;;;;;;134.25;25.40;;;6.00;99.90;;;;;;5052581;28;20364;-72
2022/03/24 03:58:07;;;;;;;28.73;19.55;;;5.90;99.90;;;;;;5070181;28;20127;-72
2022/03/24 04:00:52;;;;;;;25.52;19.15;;;5.90;99.90;;;;;;5052421;28;20052;-72
2022/03/24 04:03:23;;;;;;;32.70;22.30;;;5.90;99.90;;;;;;5051933;28;20048;-72
2022/03/24 04:05:53;;;;;;;32.72;22.80;;;5.90;99.90;;;;;;5051952;28;20051;-72
2022/03/24 04:08:20;;;;;;;31.08;21.88;;;5.80;99.90;;;;;;5052272;28;20650;-73
2022/03/24 04:10:46;;;;;;;;;;;5.80;99.90;;;;;;5056588;28;20076;-72
2022/03/24 04:13:12;;;;;;;27.38;19.33;;;5.70;99.90;;;;;;5056139;28;19917;-72
2022/03/24 04:15:38;;;;;;;27.13;20.25;;;6.10;99.90;;;;;;5023204;28;20059;-72
2022/03/24 04:18:06;;;;;;;24.95;19.63;;;5.60;99.90;;;;;;5039367;28;20052;-73
2022/03/24 04:20:32;;;;;;;25.23;19.38;;;5.60;99.90;;;;;;5056280;28;20044;-73
2022/03/24 04:23:00;;;;;;;27.85;19.67;;;5.70;99.90;;;;;;5039148;28;20055;-72
2022/03/24 04:25:27;;;;;;;26.88;19.75;;;5.60;99.90;;;;;;5056262;28;20039;-72
2022/03/24 04:27:53;;;;;;;26.25;19.77;;;5.70;99.90;;;;;;5039450;28;20118;-72
2022/03/24 04:30:19;;;;;;;27.00;19.52;;;5.70;99.90;;;;;;5039121;28;20043;-72
2022/03/24 04:32:49;;;;;;;23.38;18.10;;;5.60;99.90;;;;;;5055708;28;20511;-72
2022/03/24 04:35:15;;;;;;;23.75;17.60;;;5.60;99.90;;;;;;5055559;28;20036;-72
2022/03/24 04:37:41;;;;;;;;;;;5.60;99.90;;;;;;5056070;28;20045;-72
2022/03/24 04:40:10;;;;;;;22.35;17.25;;;5.70;99.90;;;;;;5055837;28;20443;-73
2022/03/24 04:42:36;;;;;;;20.70;16.30;;;5.50;99.90;;;;;;5055419;28;20041;-72
2022/03/24 04:45:02;;;;;;;39.33;17.40;;;5.50;99.90;;;;;;5055509;28;20066;-72
2022/03/24 04:47:28;;;;;;;20.20;16.45;;;5.50;99.90;;;;;;5055747;28;20055;-72
2022/03/24 04:49:54;;;;;;;18.17;15.47;;;5.50;99.90;;;;;;5055898;28;20383;-73
2022/03/24 04:52:20;;;;;;;16.98;14.52;;;5.40;99.90;;;;;;5055619;28;20056;-72
2022/03/24 04:54:46;;;;;;;19.40;15.18;;;5.40;99.90;;;;;;5055338;28;20048;-72
2022/03/24 04:57:12;;;;;;;19.77;15.82;;;5.60;99.90;;;;;;5055081;28;20048;-71
2022/03/24 04:59:38;;;;;;;18.70;15.65;;;5.40;99.90;;;;;;5038869;28;20170;-72
2022/03/24 05:02:04;;;;;;;42.40;17.00;;;5.30;99.90;;;;;;5055197;28;20040;-73
2022/03/24 05:04:30;;;;;;;55.47;17.90;;;5.30;99.90;;;;;;5038563;28;20045;-73
2022/03/24 05:06:55;;;;;;;46.00;16.77;;;5.30;99.90;;;;;;5038830;28;20037;-72
2022/03/24 05:09:21;;;;;;;43.90;17.23;;;5.30;99.90;;;;;;5054997;28;20503;-73
2022/03/24 05:11:47;;;;;;;58.50;17.77;;;5.30;99.90;;;;;;5054880;28;20044;-72
2022/03/24 05:14:13;;;;;;;264.30;27.03;;;5.30;99.90;;;;;;5038525;28;20076;-73
2022/03/24 05:16:38;;;;;;;97.05;19.77;;;5.30;99.90;;;;;;5072902;28;20113;-73
2022/03/24 05:19:04;;;;;;;120.37;20.70;;;5.30;99.90;;;;;;5054903;28;20037;-72
2022/03/24 05:21:32;;;;;;;52.45;17.40;;;5.30;99.90;;;;;;5055285;28;20532;-71
2022/03/24 05:23:59;;;;;;;99.50;21.02;;;5.30;99.90;;;;;;5054948;28;20044;-72
2022/03/24 05:26:25;;;;;;;129.77;20.75;;;5.30;99.90;;;;;;5054700;28;20527;-73
2022/03/24 05:28:51;;;;;;;58.88;19.23;;;5.20;99.90;;;;;;5054677;28;20047;-73
2022/03/24 05:31:18;;;;;;;38.50;17.52;;;5.20;99.90;;;;;;5054765;28;20048;-72
2022/03/24 05:33:45;;;;;;;24.08;17.85;;;5.20;99.90;;;;;;5055288;28;20041;-71
2022/03/24 05:36:11;;;;;;;24.15;17.63;;;5.20;99.90;;;;;;5038493;28;20444;-73
2022/03/24 05:38:37;;;;;;;23.75;16.50;;;5.20;99.90;;;;;;5054551;28;20043;-73
2022/03/24 05:41:04;;;;;;;31.85;16.27;;;5.10;99.90;;;;;;5054385;28;20048;-72
2022/03/24 05:43:31;;;;;;;16.23;14.45;;;5.10;99.90;;;;;;5054907;28;20040;-73
2022/03/24 05:45:56;;;;;;;34.80;16.50;;;5.10;99.90;;;;;;5054711;28;20520;-73
2022/03/24 05:48:22;;;;;;;37.73;16.23;;;5.30;99.90;;;;;;5054295;28;20044;-73
2022/03/24 05:50:48;;;;;;;71.82;18.33;;;5.00;99.90;;;;;;5037848;28;20289;-73
2022/03/24 05:53:14;;;;;;;25.38;16.48;;;5.00;99.90;;;;;;5054317;28;20383;-73
2022/03/24 05:55:41;;;;;;;174.32;25.88;;;5.00;99.90;;;;;;5054173;28;20072;-73
2022/03/24 05:58:07;;;;;;;;;;;5.00;99.90;;;;;;5038093;28;20044;-73
2022/03/24 06:00:37;;;;;;;247.93;29.88;;;4.90;99.90;;;;;;5054284;28;19916;-72
2022/03/24 06:03:03;;;;;;;149.85;27.10;;;4.90;99.90;;;;;;5054729;28;20036;-73
2022/03/24 06:05:29;;;;;;;264.30;32.53;;;5.00;99.90;;;;;;5054379;28;20044;-73
2022/03/24 06:07:58;;;;;;;62.20;23.15;;;5.00;99.90;;;;;;5053837;28;20054;-73
2022/03/24 06:10:24;;;;;;;182.88;29.23;;;5.00;99.90;;;;;;5053883;28;20101;-72
2022/03/24 06:12:51;;;;;;;93.82;26.13;;;5.00;99.90;;;;;;5037647;28;20476;-73
2022/03/24 06:15:16;;;;;;;110.07;23.25;;;5.10;99.90;;;;;;5071549;28;20040;-73
2022/03/24 06:17:42;;;;;;;45.07;21.10;;;5.00;99.90;;;;;;5053823;28;20052;-73
2022/03/24 06:20:08;;;;;;;54.33;23.90;;;5.40;99.90;;;;;;5071678;28;20055;-73
2022/03/24 06:22:52;;;;;;;33.50;22.30;;;5.20;99.90;;;;;;5053956;28;20048;-73
2022/03/24 06:25:18;;;;;;;38.05;24.98;;;5.30;99.90;;;;;;5053531;28;20166;-73
2022/03/24 06:27:46;;;;;;;32.55;22.15;;;5.50;99.90;;;;;;5053697;28;20040;-73
2022/03/24 06:30:13;;;;;;;30.80;21.67;;;5.50;99.90;;;;;;5053482;28;20052;-72
2022/03/24 06:32:39;;;;;;;30.80;22.50;;;5.50;99.90;;;;;;5052668;28;20083;-72
2022/03/24 06:35:05;;;;;;;35.07;24.37;;;5.60;99.90;;;;;;5071423;28;20084;-72
2022/03/24 06:37:39;;;;;;;36.95;24.35;;;5.80;99.90;;;;;;5053969;28;20680;-73
2022/03/24 06:40:07;;;;;;;29.02;22.02;;;5.90;99.90;;;;;;5053416;28;20055;-73
2022/03/24 06:42:33;;;;;;;29.58;22.58;;;5.90;99.90;;;;;;5053731;28;20044;-73
2022/03/24 06:44:59;;;;;;;29.43;22.77;;;6.00;99.90;;;;;;5053523;28;20043;-73
2022/03/24 06:47:25;;;;;;;68.10;28.65;;;6.10;99.90;;;;;;5053171;28;20048;-73
2022/03/24 06:49:50;;;;;;;82.13;28.70;;;6.20;99.90;;;;;;5053101;28;20403;-73
2022/03/24 06:52:16;;;;;;;53.77;26.63;;;6.40;99.90;;;;;;5036261;28;20036;-73
2022/03/24 06:54:42;;;;;;;34.20;24.27;;;6.50;99.90;;;;;;5053210;28;20541;-72
2022/03/24 06:57:08;;;;;;;34.73;24.47;;;6.60;99.90;;;;;;5036731;28;20040;-73
2022/03/24 06:59:34;;;;;;;32.92;23.08;;;6.70;99.90;;;;;;5053387;28;20480;-73
2022/03/24 07:02:02;;;;;;;36.15;24.23;;;6.90;99.90;;;;;;5053041;28;20036;-73
2022/03/24 07:04:28;;;;;;;35.85;24.45;;;7.00;99.90;;;;;;5036191;28;20066;-73
2022/03/24 07:06:53;;;;;;;35.20;24.00;;;7.20;99.90;;;;;;5052991;28;20024;-73
2022/03/24 07:09:19;;;;;;;36.77;25.70;;;7.40;99.90;;;;;;5052529;28;20488;-73
2022/03/24 07:11:45;;;;;;;36.47;24.77;;;7.70;99.90;;;;;;5053098;28;20036;-72
2022/03/24 07:14:10;;;;;;;36.77;24.33;;;7.80;99.90;;;;;;5070616;28;20275;-73
2022/03/24 07:16:36;;;;;;;38.13;25.38;;;8.00;99.90;;;;;;5052817;28;20404;-74
2022/03/24 07:19:03;;;;;;;38.28;26.15;;;8.20;99.90;;;;;;5052697;28;20087;-73
2022/03/24 07:21:29;;;;;;;43.20;27.38;;;8.40;99.90;;;;;;5052657;28;20079;-73
2022/03/24 07:23:55;;;;;;;38.08;25.45;;;8.60;99.90;;;;;;5052914;28;20048;-73
2022/03/24 07:26:20;;;;;;;40.50;27.20;;;8.80;99.90;;;;;;5052586;28;20096;-73
2022/03/24 07:28:48;;;;;;;39.13;26.37;;;9.20;99.90;;;;;;5036305;28;20071;-73
2022/03/24 07:31:16;;;;;;;39.95;26.10;;;9.70;99.90;;;;;;5052174;28;20289;-72
2022/03/24 07:33:47;;;;;;;38.92;25.67;;;10.30;99.90;;;;;;5052744;28;20540;-72
2022/03/24 07:36:13;;;;;;;40.83;26.70;;;11.00;99.90;;;;;;5052514;28;20518;-72
2022/03/24 07:38:39;;;;;;;;;;;11.70;99.90;;;;;;5053113;28;20037;-72
2022/03/24 07:41:06;;;;;;;37.95;26.00;;;12.00;99.90;;;;;;5052886;28;19938;-73
2022/03/24 07:43:32;;;;;;;40.38;26.80;;;12.30;99.90;;;;;;5052114;28;20044;-73
2022/03/24 07:45:58;;;;;;;39.65;25.63;;;12.80;99.90;;;;;;5035703;28;20064;-73
2022/03/24 07:48:27;;;;;;;35.30;25.38;;;13.20;99.90;;;;;;5052338;28;20064;-73
2022/03/24 07:50:54;;;;;;;33.72;23.38;;;13.40;99.90;;;;;;5035494;28;20032;-73
2022/03/24 07:53:34;;;;;;;34.08;24.08;;;13.80;99.90;;;;;;5051657;28;20120;-73
2022/03/24 07:56:01;;;;;;;40.58;26.58;;;14.10;99.90;;;;;;5051982;28;20060;-73
2022/03/24 07:58:26;;;;;;;40.95;27.67;;;14.40;99.90;;;;;;5035237;28;20198;-72
2022/03/24 08:00:52;;;;;;;41.72;28.05;;;14.60;99.90;;;;;;5051945;28;20508;-73
2022/03/24 08:03:20;;;;;;;47.80;30.50;;;15.10;99.90;;;;;;5052001;28;20049;-73
2022/03/24 08:05:46;;;;;;;45.72;32.50;;;15.20;99.90;;;;;;5035379;28;20511;-72
2022/03/24 08:08:14;;;;;;;48.78;32.53;;;15.20;99.90;;;;;;5052287;28;20094;-73
2022/03/24 08:10:41;;;;;;;48.97;32.90;;;15.10;99.90;;;;;;5052596;28;20510;-72
2022/03/24 08:13:13;;;;;;;50.47;32.60;;;15.40;99.90;;;;;;5052224;28;20040;-72
2022/03/24 08:15:39;;;;;;;49.95;33.17;;;15.60;99.90;;;;;;5052589;28;20510;-73
2022/03/24 08:18:05;;;;;;;;;;;15.60;99.90;;;;;;5052371;28;20061;-73
2022/03/24 08:20:38;;;;;;;55.10;35.35;;;15.70;99.90;;;;;;5085807;28;20010;-73
2022/03/24 08:23:05;;;;;;;56.40;36.17;;;15.90;99.90;;;;;;5052290;28;20533;-73
2022/03/24 08:25:32;;;;;;;55.13;35.58;;;16.20;99.90;;;;;;5051758;28;20045;-73
2022/03/24 08:27:58;;;;;;;60.78;36.58;;;16.50;99.90;;;;;;5052283;28;20450;-73
2022/03/24 08:30:24;;;;;;;;;;;16.80;99.90;;;;;;5052201;28;20041;-73
2022/03/24 08:32:50;;;;;;;54.63;34.35;;;17.00;99.90;;;;;;5085778;28;19916;-72
2022/03/24 08:35:16;;;;;;;53.72;33.25;;;17.40;99.90;;;;;;5034974;28;20124;-72
2022/03/24 08:37:42;;;;;;;52.45;35.50;;;17.90;99.90;;;;;;5052258;28;20434;-72
2022/03/24 08:40:10;;;;;;;54.03;35.85;;;17.90;99.90;;;;;;5052246;28;20127;-73
2022/03/24 08:42:37;;;;;;;55.22;36.80;;;18.20;99.90;;;;;;5051725;28;20510;-72
2022/03/24 08:45:05;;;;;;;57.40;37.45;;;18.40;99.90;;;;;;5052058;28;20037;-73
2022/03/24 08:47:31;;;;;;;49.42;35.47;;;18.50;99.90;;;;;;5051740;28;20090;-73
2022/03/24 08:49:57;;;;;;;54.35;35.33;;;18.70;99.90;;;;;;5035226;28;20036;-73
2022/03/24 08:52:23;;;;;;;46.45;33.90;;;18.70;99.90;;;;;;5051827;28;20507;-74
2022/03/24 08:54:49;;;;;;;45.35;32.00;;;18.70;98.50;;;;;;5035416;28;20040;-74
2022/03/24 08:57:15;;;;;;;47.00;32.30;;;19.00;96.30;;;;;;5055213;28;20091;-74
2022/03/24 08:59:41;;;;;;;46.78;32.22;;;19.20;93.90;;;;;;5038892;28;20083;-74
2022/03/24 09:02:08;;;;;;;47.15;32.88;;;19.20;93.20;;;;;;5055395;28;20040;-74
2022/03/24 09:04:34;;;;;;;50.45;34.45;;;19.60;94.10;;;;;;5054833;28;20044;-73
2022/03/24 09:07:00;;;;;;;48.70;34.35;;;19.80;93.30;;;;;;5055237;28;20041;-74
2022/03/24 09:09:26;;;;;;;46.05;34.30;;;20.00;93.00;;;;;;5054929;28;20087;-74
2022/03/24 09:11:52;;;;;;;47.22;34.03;;;20.00;92.10;;;;;;5055286;28;20068;-74
2022/03/24 09:14:19;;;;;;;46.03;32.08;;;20.20;91.50;;;;;;5055000;28;20048;-73
2022/03/24 09:16:45;;;;;;;44.60;31.30;;;20.40;90.00;;;;;;5054824;28;20040;-73
2022/03/24 09:19:12;;;;;;;46.00;31.83;;;20.40;90.10;;;;;;5055233;28;20048;-73
2022/03/24 09:21:38;;;;;;;44.75;31.50;;;20.40;89.90;;;;;;5054757;28;20045;-72
2022/03/24 09:24:04;;;;;;;45.63;32.25;;;20.80;89.20;;;;;;5054428;28;20052;-73
2022/03/24 09:26:30;;;;;;;46.97;32.50;;;21.00;86.20;;;;;;5054738;28;20048;-73
2022/03/24 09:28:58;;;;;;;48.13;33.13;;;21.20;86.50;;;;;;5054731;28;20050;-72
2022/03/24 09:31:23;;;;;;;44.88;32.67;;;21.80;86.10;;;;;;5054357;28;20040;-73
2022/03/24 09:33:49;;;;;;;;;;;22.00;82.60;;;;;;5038741;28;20040;-73
2022/03/24 09:36:15;;;;;;;44.55;31.08;;;22.00;82.00;;;;;;5054989;28;19916;-74
2022/03/24 09:38:40;;;;;;;45.22;32.28;;;22.20;79.40;;;;;;5054210;28;20139;-73
2022/03/24 09:41:06;;;;;;;;;;;21.80;80.60;;;;;;5038736;28;20048;-73
2022/03/24 09:43:36;;;;;;;45.25;33.08;;;21.80;79.10;;;;;;5054331;28;19917;-73
2022/03/24 09:46:02;;;;;;;42.15;31.10;;;22.00;79.60;;;;;;5054231;28;20048;-73
2022/03/24 09:48:30;;;;;;;45.55;32.55;;;22.30;77.90;;;;;;5054467;28;20059;-73
2022/03/24 09:50:56;;;;;;;45.72;31.90;;;22.60;77.20;;;;;;5037624;28;20086;-73
2022/03/24 09:53:23;;;;;;;45.65;31.27;;;22.80;75.60;;;;;;5053778;28;20037;-73
2022/03/24 09:55:50;;;;;;;45.08;31.77;;;22.90;76.10;;;;;;5054316;28;20063;-74
2022/03/24 09:58:23;;;;;;;42.67;32.30;;;23.00;74.90;;;;;;5038092;28;20045;-73
2022/03/24 10:00:49;;;;;;;46.20;32.40;;;23.20;73.60;;;;;;5054197;28;20492;-73
2022/03/24 10:03:17;;;;;;;43.22;32.95;;;23.10;74.30;;;;;;5037725;28;20077;-73
2022/03/24 10:06:10;;;;;;;48.78;33.63;;;23.40;74.70;;;;;;5053528;28;20043;-74
2022/03/24 10:08:36;;;;;;;42.53;32.80;;;23.20;73.20;;;;;;5053206;28;20093;-73
2022/03/24 10:11:07;;;;;;;45.50;32.72;;;23.30;72.50;;;;;;5053804;28;20044;-73
2022/03/24 10:13:49;;;;;;;45.30;33.08;;;24.00;73.00;;;;;;5053418;28;20037;-73
2022/03/24 10:16:33;;;;;;;47.85;33.70;;;24.20;72.90;;;;;;5053786;28;20040;-73
2022/03/24 10:19:09;;;;;;;46.75;33.80;;;24.40;71.10;;;;;;5013884;28;20046;-74
2022/03/24 10:21:38;;;;;;;48.42;33.83;;;24.60;72.00;;;;;;5013915;28;20504;-74
2022/03/24 10:24:08;;;;;;;43.45;32.33;;;24.60;71.90;;;;;;5013929;28;20034;-73
2022/03/24 10:26:47;;;;;;;43.00;31.13;;;24.80;70.60;;;;;;5013306;28;20045;-74
2022/03/24 10:29:22;;;;;;;44.05;30.40;;;24.90;68.40;;;;;;5013839;28;20052;-74
2022/03/24 10:31:56;;;;;;;43.45;31.95;;;24.90;68.00;;;;;;4997748;28;20547;-72
2022/03/24 10:34:37;;;;;;;44.88;31.45;;;24.70;68.40;;;;;;5013497;28;20073;-73
2022/03/24 10:37:06;;;;;;;37.25;26.70;;;24.20;68.00;;;;;;5013452;28;20512;-73
2022/03/24 10:39:33;;;;;;;41.25;28.85;;;24.10;68.40;;;;;;5013188;28;20048;-72
2022/03/24 10:42:12;;;;;;;41.03;28.95;;;24.80;68.10;;;;;;4997351;28;20049;-73
2022/03/24 10:45:07;;;;;;;40.75;30.15;;;25.10;66.40;;;;;;5012874;28;20049;-73
2022/03/24 10:47:36;;;;;;;39.53;29.13;;;25.30;66.80;;;;;;5013299;28;20045;-73
2022/03/24 10:50:25;;;;;;;43.42;29.88;;;25.20;67.50;;;;;;5013873;28;20477;-73
2022/03/24 10:52:53;;;;;;;41.08;30.85;;;25.30;67.10;;;;;;5013934;28;20139;-73
2022/03/24 10:55:42;;;;;;;43.63;31.70;;;25.30;66.90;;;;;;5013717;28;20132;-74
2022/03/24 10:58:27;;;;;;;38.30;29.48;;;25.30;66.70;;;;;;5003164;28;20531;-74
2022/03/24 11:00:57;;;;;;;37.33;29.42;;;25.60;65.90;;;;;;4997343;28;20052;-73
2022/03/24 11:03:23;;;;;;;39.22;30.67;;;25.10;66.70;;;;;;5013110;28;20049;-73
2022/03/24 11:05:49;;;;;;;39.38;29.83;;;25.00;66.80;;;;;;5013390;28;20052;-74
2022/03/24 11:08:17;;;;;;;39.80;28.90;;;25.40;67.90;;;;;;5013126;28;20038;-73
2022/03/24 11:10:47;;;;;;;38.58;29.10;;;25.40;65.70;;;;;;5030677;28;20038;-73
2022/03/24 11:13:39;;;;;;;41.97;29.92;;;24.90;65.60;;;;;;5013317;28;20048;-74
2022/03/24 11:16:05;;;;;;;37.20;28.65;;;25.40;66.10;;;;;;5012976;28;20049;-74
2022/03/24 11:18:32;;;;;;;37.88;27.52;;;25.80;66.30;;;;;;4996107;28;20145;-74
2022/03/24 11:21:13;;;;;;;36.67;26.63;;;25.90;65.90;;;;;;5013219;28;20465;-73
2022/03/24 11:23:39;;;;;;;39.35;28.17;;;25.90;64.20;;;;;;5030582;28;20084;-73
2022/03/24 11:26:07;;;;;;;43.05;28.05;;;26.00;64.50;;;;;;5012659;28;20049;-73
2022/03/24 11:28:35;;;;;;;40.15;28.17;;;25.90;63.80;;;;;;5012778;28;20052;-73
2022/03/24 11:31:19;;;;;;;35.15;26.92;;;26.30;63.70;;;;;;5030559;28;20087;-73
2022/03/24 11:33:50;;;;;;;34.38;25.80;;;26.80;63.40;;;;;;5012997;28;20393;-74
2022/03/24 11:36:20;;;;;;;35.90;25.30;;;26.60;63.00;;;;;;5030782;28;20128;-74
2022/03/24 11:38:48;;;;;;;33.08;26.23;;;26.10;62.10;;;;;;5012545;28;20080;-74
2022/03/24 11:41:25;;;;;;;36.58;26.77;;;26.10;62.40;;;;;;5012942;28;20045;-74
2022/03/24 11:43:55;;;;;;;38.83;27.27;;;26.10;62.30;;;;;;5012634;28;20049;-74
2022/03/24 11:46:52;;;;;;;39.45;28.23;;;26.00;62.70;;;;;;5013070;28;20500;-74
2022/03/24 11:49:23;;;;;;;36.85;27.23;;;26.10;62.10;;;;;;5012163;28;20390;-73
2022/03/24 11:52:10;;;;;;;33.33;26.52;;;26.40;62.10;;;;;;5012377;28;20049;-74
2022/03/24 11:54:38;;;;;;;35.90;28.40;;;26.20;62.40;;;;;;5012275;28;20044;-73
2022/03/24 11:57:25;;;;;;;36.90;27.60;;;25.90;62.30;;;;;;5012419;28;20049;-73
2022/03/24 12:00:14;;;;;;;38.95;27.83;;;26.10;62.00;;;;;;5012702;28;20124;-73
2022/03/24 12:02:49;;;;;;;41.50;29.52;;;26.10;62.90;;;;;;5012205;28;20037;-74
2022/03/24 12:05:16;;;;;;;44.70;31.88;;;26.30;64.00;;;;;;5012699;28;20041;-73
2022/03/24 12:07:42;;;;;;;38.35;29.27;;;26.30;64.00;;;;;;5012178;28;20052;-73
2022/03/24 12:10:10;;;;;;;38.92;29.15;;;26.50;63.80;;;;;;5012476;28;20045;-73
2022/03/24 12:12:37;;;;;;;36.00;28.25;;;26.40;62.80;;;;;;5012220;28;20041;-73
2022/03/24 12:15:11;;;;;;;40.97;29.90;;;26.40;62.90;;;;;;5012273;28;20131;-74
2022/03/24 12:17:37;;;;;;;37.40;29.05;;;26.90;62.60;;;;;;5021050;28;20053;-73
2022/03/24 12:20:20;;;;;;;41.55;28.95;;;26.50;62.90;;;;;;5032192;28;20052;-73
2022/03/24 12:22:46;;;;;;;39.55;27.55;;;26.60;62.60;;;;;;5032192;28;20545;-74
2022/03/24 12:25:15;;;;;;;36.25;26.80;;;26.70;62.20;;;;;;5048687;28;20079;-74
2022/03/24 12:28:11;;;;;;;33.65;26.85;;;26.60;61.50;;;;;;5031767;28;20033;-74
2022/03/24 12:30:44;;;;;;;36.08;26.95;;;27.00;61.00;;;;;;5049934;28;20040;-73
2022/03/24 12:33:12;;;;;;;32.72;26.20;;;26.60;60.60;;;;;;5052602;28;20044;-73
2022/03/24 12:35:41;;;;;;;36.10;26.17;;;26.70;61.10;;;;;;5019037;28;20451;-74
2022/03/24 12:38:32;;;;;;;34.60;26.17;;;26.50;60.20;;;;;;5035669;28;20040;-74
2022/03/24 12:41:04;;;;;;;31.63;24.48;;;26.90;59.70;;;;;;5035789;28;20052;-73
2022/03/24 12:43:48;;;;;;;32.92;24.60;;;26.70;60.70;;;;;;5035589;28;20056;-74